createdAt,value
2023-04-22T00:00:27.795Z,25.60
2023-04-22T00:02:57.262Z,25.57
2023-04-22T00:05:25.647Z,25.53
2023-04-22T00:07:54.006Z,25.54
2023-04-22T00:10:22.364Z,25.56
2023-04-22T00:12:50.619Z,25.48
2023-04-22T00:15:22.446Z,25.36
2023-04-22T00:17:50.984Z,25.28
2023-04-22T00:20:24.362Z,25.21
2023-04-22T00:22:52.750Z,25.16
2023-04-22T00:25:21.279Z,25.04
2023-04-22T00:27:49.702Z,24.97
2023-04-22T00:30:17.975Z,24.89
2023-04-22T00:32:46.279Z,24.85
2023-04-22T00:35:14.562Z,24.71
2023-04-22T00:37:42.946Z,24.55
2023-04-22T00:40:12.125Z,24.38
2023-04-22T00:42:40.730Z,24.16
2023-04-22T00:45:13.145Z,24.10
2023-04-22T00:47:42.713Z,24.06
2023-04-22T00:50:11.450Z,23.99
2023-04-22T00:52:39.717Z,23.94
2023-04-22T00:55:08.460Z,23.95
2023-04-22T00:57:37.217Z,24.08
2023-04-22T01:00:07.105Z,24.03
2023-04-22T01:02:35.526Z,23.87
2023-04-22T01:05:04.899Z,23.70
2023-04-22T01:07:33.385Z,23.58
2023-04-22T01:10:02.320Z,23.35
2023-04-22T01:12:30.583Z,23.15
2023-04-22T01:14:58.985Z,22.98
2023-04-22T01:17:27.322Z,22.92
2023-04-22T01:19:56.583Z,22.82
2023-04-22T01:22:31.608Z,22.63
2023-04-22T01:25:00.217Z,22.47
2023-04-22T01:27:28.612Z,22.39
2023-04-22T01:29:57.111Z,22.33
2023-04-22T01:32:25.940Z,22.31
2023-04-22T01:34:54.350Z,22.24
2023-04-22T01:37:22.888Z,22.13
2023-04-22T01:39:51.545Z,22.03
2023-04-22T01:42:20.246Z,21.95
2023-04-22T01:44:48.809Z,21.90
2023-04-22T01:47:17.350Z,21.90
2023-04-22T01:49:45.979Z,21.90
2023-04-22T01:52:14.626Z,21.83
2023-04-22T01:54:43.140Z,21.78
2023-04-22T01:57:14.820Z,21.75
2023-04-22T01:59:43.172Z,21.68
2023-04-22T02:02:11.624Z,21.56
2023-04-22T02:04:40.069Z,21.50
2023-04-22T02:07:08.410Z,21.44
2023-04-22T02:09:37.109Z,21.31
2023-04-22T02:12:05.854Z,21.19
2023-04-22T02:14:34.189Z,21.11
2023-04-22T02:17:05.733Z,21.06
2023-04-22T02:19:34.246Z,20.98
2023-04-22T02:22:02.793Z,20.96
2023-04-22T02:24:31.078Z,20.93
2023-04-22T02:26:59.353Z,20.93
2023-04-22T02:29:28.187Z,20.94
2023-04-22T02:31:56.463Z,20.93
2023-04-22T02:34:24.737Z,20.90
2023-04-22T02:36:53.045Z,20.84
2023-04-22T02:39:21.589Z,20.81
2023-04-22T02:41:49.846Z,20.76
2023-04-22T02:44:18.127Z,20.71
2023-04-22T02:46:46.450Z,20.66
2023-04-22T02:49:14.767Z,20.56
2023-04-22T02:51:43.038Z,20.48
2023-04-22T02:54:11.378Z,20.44
2023-04-22T02:56:39.694Z,20.37
2023-04-22T02:59:08.024Z,20.34
2023-04-22T03:01:36.357Z,20.32
2023-04-22T03:04:04.962Z,20.26
2023-04-22T03:06:33.665Z,20.23
2023-04-22T03:09:01.997Z,20.20
2023-04-22T03:11:30.308Z,20.19
2023-04-22T03:13:58.612Z,20.14
2023-04-22T03:16:27.021Z,20.11
2023-04-22T03:18:55.391Z,20.03
2023-04-22T03:21:23.715Z,19.98
2023-04-22T03:23:51.952Z,19.93
2023-04-22T03:26:20.294Z,19.89
2023-04-22T03:28:48.540Z,19.84
2023-04-22T03:31:17.259Z,19.79
2023-04-22T03:33:45.932Z,19.73
2023-04-22T03:36:14.181Z,19.66
2023-04-22T03:38:42.542Z,19.61
2023-04-22T03:41:11.009Z,19.53
2023-04-22T03:43:39.250Z,19.41
2023-04-22T03:46:09.046Z,19.35
2023-04-22T03:48:37.613Z,19.30
2023-04-22T03:51:05.925Z,19.27
2023-04-22T03:53:34.190Z,19.25
2023-04-22T03:56:02.424Z,19.21
2023-04-22T03:58:30.879Z,19.19
2023-04-22T04:00:59.189Z,19.15
2023-04-22T04:03:30.177Z,19.10
2023-04-22T04:05:59.404Z,19.05
2023-04-22T04:08:27.814Z,19.04
2023-04-22T04:10:56.209Z,19.01
2023-04-22T04:13:24.517Z,18.97
2023-04-22T04:15:53.421Z,18.90
2023-04-22T04:18:22.454Z,18.84
2023-04-22T04:20:50.698Z,18.77
2023-04-22T04:23:19.248Z,18.71
2023-04-22T04:25:48.667Z,18.64
2023-04-22T04:28:18.638Z,18.58
2023-04-22T04:30:47.542Z,18.55
2023-04-22T04:33:18.166Z,18.45
2023-04-22T04:35:46.858Z,18.35
2023-04-22T04:38:15.369Z,18.23
2023-04-22T04:40:44.491Z,18.15
2023-04-22T04:43:13.831Z,18.06
2023-04-22T04:45:48.800Z,17.96
2023-04-22T04:48:17.864Z,17.89
2023-04-22T04:50:46.578Z,17.87
2023-04-22T04:53:14.812Z,17.82
2023-04-22T04:55:43.118Z,17.79
2023-04-22T04:58:11.580Z,17.75
2023-04-22T05:00:39.884Z,17.69
2023-04-22T05:03:08.479Z,17.62
2023-04-22T05:05:37.147Z,17.56
2023-04-22T05:08:05.783Z,17.52
2023-04-22T05:10:34.138Z,17.51
2023-04-22T05:13:04.100Z,17.51
2023-04-22T05:15:32.944Z,17.46
2023-04-22T05:18:01.392Z,17.43
2023-04-22T05:20:29.784Z,17.40
2023-04-22T05:22:58.071Z,17.38
2023-04-22T05:25:26.420Z,17.34
2023-04-22T05:27:54.721Z,17.32
2023-04-22T05:30:23.100Z,17.32
2023-04-22T05:32:51.494Z,17.27
2023-04-22T05:35:19.986Z,17.24
2023-04-22T05:37:48.527Z,17.19
2023-04-22T05:40:17.027Z,17.15
2023-04-22T05:42:45.392Z,17.10
2023-04-22T05:45:13.780Z,17.01
2023-04-22T05:47:42.246Z,16.95
2023-04-22T05:50:10.781Z,16.88
2023-04-22T05:52:39.054Z,16.84
2023-04-22T05:55:08.299Z,16.80
2023-04-22T05:57:36.629Z,16.69
2023-04-22T06:00:06.220Z,16.68
2023-04-22T06:02:34.709Z,16.61
2023-04-22T06:05:03.563Z,16.58
2023-04-22T06:07:32.043Z,16.56
2023-04-22T06:10:05.144Z,16.57
2023-04-22T06:12:35.652Z,16.55
2023-04-22T06:15:04.080Z,16.52
2023-04-22T06:17:32.430Z,16.51
2023-04-22T06:20:00.833Z,16.52
2023-04-22T06:22:29.058Z,16.48
2023-04-22T06:24:57.353Z,16.47
2023-04-22T06:27:25.643Z,16.47
2023-04-22T06:29:53.917Z,16.46
2023-04-22T06:32:22.379Z,16.44
2023-04-22T06:34:50.638Z,16.42
2023-04-22T06:37:19.350Z,16.36
2023-04-22T06:39:47.974Z,16.31
2023-04-22T06:42:16.263Z,16.29
2023-04-22T06:44:44.550Z,16.27
2023-04-22T06:47:12.822Z,16.21
2023-04-22T06:49:41.468Z,16.16
2023-04-22T06:52:10.258Z,16.10
2023-04-22T06:54:39.350Z,16.04
2023-04-22T06:57:08.843Z,16.00
2023-04-22T06:59:37.349Z,15.97
2023-04-22T07:02:06.910Z,15.95
2023-04-22T07:04:35.368Z,15.93
2023-04-22T07:07:04.484Z,15.88
2023-04-22T07:09:32.854Z,15.82
2023-04-22T07:12:02.128Z,15.79
2023-04-22T07:14:30.445Z,15.77
2023-04-22T07:16:58.861Z,15.71
2023-04-22T07:19:27.455Z,15.69
2023-04-22T07:21:55.900Z,15.64
2023-04-22T07:24:24.501Z,15.60
2023-04-22T07:26:52.886Z,15.56
2023-04-22T07:29:21.311Z,15.53
2023-04-22T07:31:49.688Z,15.50
2023-04-22T07:34:19.264Z,15.47
2023-04-22T07:36:48.033Z,15.48
2023-04-22T07:39:16.825Z,15.48
2023-04-22T07:41:45.066Z,15.45
2023-04-22T07:44:17.348Z,15.43
2023-04-22T07:46:45.933Z,15.40
2023-04-22T07:49:14.951Z,15.34
2023-04-22T07:51:43.446Z,15.31
2023-04-22T07:54:11.924Z,15.30
2023-04-22T07:56:40.302Z,15.29
2023-04-22T07:59:08.656Z,15.26
2023-04-22T08:01:36.956Z,15.26
2023-04-22T08:04:05.512Z,15.26
2023-04-22T08:06:33.992Z,15.22
2023-04-22T08:09:02.267Z,15.22
2023-04-22T08:11:31.305Z,15.22
2023-04-22T08:13:59.794Z,15.21
2023-04-22T08:16:28.188Z,15.16
2023-04-22T08:18:58.418Z,15.11
2023-04-22T08:21:28.414Z,15.08
2023-04-22T08:23:56.930Z,15.03
2023-04-22T08:26:25.326Z,14.97
2023-04-22T08:28:53.589Z,14.93
2023-04-22T08:31:21.825Z,14.94
2023-04-22T08:33:51.562Z,14.96
2023-04-22T08:36:22.637Z,14.97
2023-04-22T08:38:51.133Z,14.97
2023-04-22T08:41:20.320Z,14.98
2023-04-22T08:43:49.108Z,14.97
2023-04-22T08:46:20.927Z,14.90
2023-04-22T08:48:51.029Z,14.82
2023-04-22T08:51:19.578Z,14.78
2023-04-22T08:53:48.601Z,14.75
2023-04-22T08:56:17.469Z,14.75
2023-04-22T08:58:47.524Z,14.74
2023-04-22T09:01:16.451Z,14.73
2023-04-22T09:03:45.510Z,14.71
2023-04-22T09:06:13.982Z,14.68
2023-04-22T09:08:42.257Z,14.66
2023-04-22T09:11:11.356Z,14.66
2023-04-22T09:13:39.669Z,14.66
2023-04-22T09:16:08.238Z,14.65
2023-04-22T09:18:49.002Z,14.62
2023-04-22T09:21:17.516Z,14.59
2023-04-22T09:23:51.344Z,14.57
2023-04-22T09:26:27.038Z,14.55
2023-04-22T09:28:59.210Z,14.53
2023-04-22T09:31:30.581Z,14.51
2023-04-22T09:34:01.665Z,14.50
2023-04-22T09:36:30.988Z,14.47
2023-04-22T09:39:01.409Z,14.48
2023-04-22T09:41:35.461Z,14.44
2023-04-22T09:44:05.323Z,14.43
2023-04-22T09:46:34.839Z,14.45
2023-04-22T09:49:03.643Z,14.48
2023-04-22T09:51:32.920Z,14.48
2023-04-22T09:54:07.331Z,14.51
2023-04-22T09:56:43.251Z,14.52
2023-04-22T09:59:12.021Z,14.50
2023-04-22T10:01:44.041Z,14.50
2023-04-22T10:04:14.536Z,14.49
2023-04-22T10:06:43.784Z,14.44
2023-04-22T10:09:13.179Z,14.40
2023-04-22T10:11:42.385Z,14.37
2023-04-22T10:14:12.130Z,14.36
2023-04-22T10:16:42.009Z,14.32
2023-04-22T10:19:15.685Z,14.30
2023-04-22T10:21:47.143Z,14.28
2023-04-22T10:24:19.650Z,14.27
2023-04-22T10:26:58.933Z,14.26
2023-04-22T10:29:29.077Z,14.21
2023-04-22T10:32:27.967Z,14.19
2023-04-22T10:35:10.923Z,14.19
2023-04-22T10:37:43.324Z,14.14
2023-04-22T10:40:21.059Z,14.10
2023-04-22T10:42:52.731Z,14.09
2023-04-22T10:45:27.329Z,14.09
2023-04-22T10:47:55.224Z,14.05
2023-04-22T10:50:29.439Z,14.06
2023-04-22T10:53:00.042Z,14.04
2023-04-22T10:55:52.583Z,14.00
2023-04-22T10:58:26.322Z,13.96
2023-04-22T11:01:00.783Z,13.94
2023-04-22T11:03:31.837Z,13.91
2023-04-22T11:06:17.165Z,13.89
2023-04-22T11:08:50.278Z,13.87
2023-04-22T11:11:20.392Z,13.84
2023-04-22T11:13:51.743Z,13.80
2023-04-22T11:16:23.391Z,13.80
2023-04-22T11:18:51.930Z,13.79
2023-04-22T11:21:21.759Z,13.76
2023-04-22T11:23:54.001Z,13.72
2023-04-22T11:26:36.176Z,13.71
2023-04-22T11:29:04.711Z,13.67
2023-04-22T11:31:33.197Z,13.64
2023-04-22T11:34:01.561Z,13.60
2023-04-22T11:36:30.007Z,13.58
2023-04-22T11:38:58.500Z,13.56
2023-04-22T11:41:26.888Z,13.56
2023-04-22T11:43:55.752Z,13.56
2023-04-22T11:46:32.005Z,13.57
2023-04-22T11:49:16.660Z,13.55
2023-04-22T11:51:58.023Z,13.54
2023-04-22T11:54:33.984Z,13.53
2023-04-22T11:57:07.630Z,13.53
2023-04-22T11:59:36.796Z,13.47
2023-04-22T12:02:09.088Z,13.40
2023-04-22T12:04:42.079Z,13.37
2023-04-22T12:07:10.576Z,13.35
2023-04-22T12:09:40.598Z,13.34
2023-04-22T12:12:09.062Z,13.32
2023-04-22T12:14:38.189Z,13.29
2023-04-22T12:17:09.883Z,13.28
2023-04-22T12:19:39.302Z,13.27
2023-04-22T12:22:07.829Z,13.22
2023-04-22T12:24:36.461Z,13.24
2023-04-22T12:27:05.350Z,13.25
2023-04-22T12:29:35.175Z,13.23
2023-04-22T12:32:03.483Z,13.18
2023-04-22T12:34:31.951Z,13.18
2023-04-22T12:37:00.864Z,13.18
2023-04-22T12:39:29.120Z,13.18
2023-04-22T12:41:58.635Z,13.17
2023-04-22T12:44:26.989Z,13.17
2023-04-22T12:46:55.238Z,13.16
2023-04-22T12:49:23.521Z,13.11
2023-04-22T12:51:54.910Z,13.09
2023-04-22T12:54:23.586Z,13.08
2023-04-22T12:56:52.490Z,13.05
2023-04-22T12:59:21.417Z,13.03
2023-04-22T13:01:49.675Z,13.01
2023-04-22T13:04:21.095Z,12.99
2023-04-22T13:06:51.460Z,12.98
2023-04-22T13:09:20.795Z,12.95
2023-04-22T13:11:50.230Z,12.94
2023-04-22T13:14:18.876Z,12.94
2023-04-22T13:16:47.553Z,12.96
2023-04-22T13:19:16.320Z,12.96
2023-04-22T13:21:44.662Z,12.90
2023-04-22T13:24:13.022Z,12.88
2023-04-22T13:26:41.335Z,12.86
2023-04-22T13:29:14.446Z,12.83
2023-04-22T13:31:46.128Z,12.84
2023-04-22T13:34:15.276Z,12.83
2023-04-22T13:36:43.738Z,12.81
2023-04-22T13:39:12.683Z,12.80
2023-04-22T13:41:41.006Z,12.79
2023-04-22T13:44:09.298Z,12.78
2023-04-22T13:46:37.557Z,12.75
2023-04-22T13:49:06.669Z,12.74
2023-04-22T13:51:35.078Z,12.73
2023-04-22T13:54:03.299Z,12.73
2023-04-22T13:56:32.013Z,12.75
2023-04-22T13:59:00.742Z,12.75
2023-04-22T14:01:29.096Z,12.75
2023-04-22T14:03:57.646Z,12.79
2023-04-22T14:06:26.118Z,12.85
2023-04-22T14:08:54.512Z,12.85
2023-04-22T14:11:22.871Z,12.89
2023-04-22T14:13:51.160Z,12.91
2023-04-22T14:16:20.724Z,12.95
2023-04-22T14:18:49.634Z,12.99
2023-04-22T14:21:18.085Z,13.02
2023-04-22T14:23:47.152Z,13.08
2023-04-22T14:26:15.397Z,13.16
2023-04-22T14:28:44.109Z,13.22
2023-04-22T14:31:12.839Z,13.28
2023-04-22T14:33:41.260Z,13.36
2023-04-22T14:36:09.794Z,13.43
2023-04-22T14:38:38.163Z,13.51
2023-04-22T14:41:06.950Z,13.61
2023-04-22T14:43:35.248Z,13.71
2023-04-22T14:46:03.743Z,13.81
2023-04-22T14:48:33.272Z,13.92
2023-04-22T14:51:02.008Z,14.04
2023-04-22T14:53:30.292Z,14.15
2023-04-22T14:55:58.593Z,14.28
2023-04-22T14:58:27.938Z,14.39
2023-04-22T15:00:56.296Z,14.48
2023-04-22T15:03:24.681Z,14.55
2023-04-22T15:05:53.377Z,14.68
2023-04-22T15:08:21.718Z,14.76
2023-04-22T15:10:50.041Z,14.84
2023-04-22T15:13:18.402Z,14.90
2023-04-22T15:15:47.565Z,14.95
2023-04-22T15:18:15.893Z,15.01
2023-04-22T15:20:44.205Z,15.11
2023-04-22T15:23:12.588Z,15.20
2023-04-22T15:25:41.064Z,15.28
2023-04-22T15:28:11.302Z,15.38
2023-04-22T15:30:41.514Z,15.45
2023-04-22T15:33:09.793Z,15.53
2023-04-22T15:35:38.143Z,15.61
2023-04-22T15:38:07.226Z,15.70
2023-04-22T15:40:35.509Z,15.77
2023-04-22T15:43:03.825Z,15.84
2023-04-22T15:45:32.208Z,15.93
2023-04-22T15:48:00.602Z,16.02
2023-04-22T15:50:29.171Z,16.11
2023-04-22T15:52:57.468Z,16.15
2023-04-22T15:55:25.891Z,16.26
2023-04-22T15:57:54.268Z,16.33
2023-04-22T16:00:22.615Z,16.38
2023-04-22T16:02:56.178Z,16.45
2023-04-22T16:05:25.571Z,16.54
2023-04-22T16:07:54.979Z,16.63
2023-04-22T16:10:24.107Z,16.73
2023-04-22T16:12:52.717Z,16.81
2023-04-22T16:15:21.048Z,16.82
2023-04-22T16:17:49.517Z,16.91
2023-04-22T16:20:18.012Z,16.97
2023-04-22T16:22:46.391Z,17.05
2023-04-22T16:25:14.850Z,17.12
2023-04-22T16:27:43.210Z,17.24
2023-04-22T16:30:13.224Z,17.33
2023-04-22T16:32:43.147Z,17.49
2023-04-22T16:35:12.291Z,17.60
2023-04-22T16:37:40.549Z,17.63
2023-04-22T16:40:09.776Z,17.65
2023-04-22T16:42:38.106Z,17.76
2023-04-22T16:45:07.505Z,17.91
2023-04-22T16:47:35.814Z,18.05
2023-04-22T16:50:04.662Z,18.15
2023-04-22T16:52:33.029Z,18.23
2023-04-22T16:55:01.689Z,18.35
2023-04-22T16:57:30.160Z,18.47
2023-04-22T16:59:58.558Z,18.51
2023-04-22T17:02:27.182Z,18.59
2023-04-22T17:04:55.601Z,18.74
2023-04-22T17:07:23.834Z,18.82
2023-04-22T17:09:52.074Z,18.89
2023-04-22T17:12:20.381Z,19.02
2023-04-22T17:14:48.675Z,19.12
2023-04-22T17:17:16.949Z,19.27
2023-04-22T17:19:45.291Z,19.33
2023-04-22T17:22:13.736Z,19.37
2023-04-22T17:24:42.321Z,19.43
2023-04-22T17:27:10.681Z,19.52
2023-04-22T17:29:39.245Z,19.62
2023-04-22T17:32:08.067Z,19.77
2023-04-22T17:34:36.479Z,19.90
2023-04-22T17:37:04.768Z,20.05
2023-04-22T17:39:33.205Z,20.17
2023-04-22T17:42:02.612Z,20.30
2023-04-22T17:44:31.972Z,20.41
2023-04-22T17:47:00.844Z,20.43
2023-04-22T17:49:29.201Z,20.50
2023-04-22T17:51:57.514Z,20.62
2023-04-22T17:54:25.973Z,20.71
2023-04-22T17:56:54.260Z,20.82
2023-04-22T17:59:22.507Z,20.96
2023-04-22T18:01:50.848Z,20.99
2023-04-22T18:04:19.115Z,21.05
2023-04-22T18:06:47.765Z,21.13
2023-04-22T18:09:16.105Z,21.28
2023-04-22T18:11:44.509Z,21.36
2023-04-22T18:14:12.826Z,21.42
2023-04-22T18:16:41.171Z,21.51
2023-04-22T18:19:09.498Z,21.58
2023-04-22T18:21:41.474Z,21.64
2023-04-22T18:24:13.536Z,21.77
2023-04-22T18:26:42.908Z,21.88
2023-04-22T18:29:11.331Z,21.97
2023-04-22T18:31:39.686Z,22.01
2023-04-22T18:34:09.001Z,22.12
2023-04-22T18:36:37.291Z,22.29
2023-04-22T18:39:06.440Z,22.44
2023-04-22T18:41:34.694Z,22.51
2023-04-22T18:44:03.140Z,22.55
2023-04-22T18:46:31.496Z,22.69
2023-04-22T18:48:59.803Z,22.77
2023-04-22T18:51:28.590Z,22.89
2023-04-22T18:53:57.229Z,23.06
2023-04-22T18:56:25.543Z,23.25
2023-04-22T18:58:55.320Z,23.41
2023-04-22T19:01:23.839Z,23.52
2023-04-22T19:03:52.542Z,23.64
2023-04-22T19:06:20.899Z,23.64
2023-04-22T19:08:49.705Z,23.81
2023-04-22T19:11:18.040Z,23.93
2023-04-22T19:13:47.468Z,24.01
2023-04-22T19:16:15.813Z,24.11
2023-04-22T19:18:45.937Z,24.18
2023-04-22T19:21:14.294Z,24.39
2023-04-22T19:23:42.949Z,24.52
2023-04-22T19:26:11.375Z,24.55
2023-04-22T19:28:39.690Z,24.69
2023-04-22T19:31:08.340Z,24.83
2023-04-22T19:33:37.134Z,24.89
2023-04-22T19:36:05.670Z,25.12
2023-04-22T19:38:34.078Z,25.09
2023-04-22T19:41:02.643Z,25.09
2023-04-22T19:43:31.043Z,25.11
2023-04-22T19:45:59.379Z,25.27
2023-04-22T19:48:28.066Z,25.45
2023-04-22T19:50:56.596Z,25.67
2023-04-22T19:53:25.072Z,25.74
2023-04-22T19:55:53.899Z,25.74
2023-04-22T19:58:22.932Z,25.89
2023-04-22T20:00:51.695Z,26.01
2023-04-22T20:03:20.572Z,26.03
2023-04-22T20:05:51.253Z,26.00
2023-04-22T20:08:27.008Z,26.06
2023-04-22T20:10:56.405Z,26.24
2023-04-22T20:13:24.898Z,26.44
2023-04-22T20:15:53.648Z,26.56
2023-04-22T20:18:22.026Z,26.68
2023-04-22T20:20:50.733Z,26.90
2023-04-22T20:23:22.382Z,26.93
2023-04-22T20:25:51.789Z,26.95
2023-04-22T20:28:20.877Z,27.05
2023-04-22T20:30:49.420Z,27.25
2023-04-22T20:33:19.255Z,27.22
2023-04-22T20:35:50.405Z,27.31
2023-04-22T20:38:20.270Z,27.43
2023-04-22T20:40:49.605Z,27.56
2023-04-22T20:43:18.047Z,27.61
2023-04-22T20:45:46.423Z,27.63
2023-04-22T20:48:14.696Z,27.78
2023-04-22T20:50:43.195Z,27.87
2023-04-22T20:53:11.580Z,27.94
2023-04-22T20:55:39.856Z,28.08
2023-04-22T20:58:08.198Z,28.25
2023-04-22T21:00:36.697Z,28.24
2023-04-22T21:03:09.704Z,28.32
2023-04-22T21:05:42.874Z,28.42
2023-04-22T21:08:19.093Z,28.58
2023-04-22T21:10:47.969Z,28.71
2023-04-22T21:13:17.021Z,28.61
2023-04-22T21:16:02.148Z,28.76
2023-04-22T21:18:33.256Z,28.87
2023-04-22T21:21:04.904Z,28.88
2023-04-22T21:23:33.743Z,29.00
2023-04-22T21:26:04.055Z,29.08
2023-04-22T21:28:32.616Z,29.17
2023-04-22T21:31:01.385Z,29.20
2023-04-22T21:33:29.637Z,29.38
2023-04-22T21:35:58.102Z,29.47
2023-04-22T21:38:26.746Z,29.65
2023-04-22T21:40:55.277Z,29.70
2023-04-22T21:43:23.708Z,29.81
2023-04-22T21:45:52.090Z,30.05
2023-04-22T21:48:20.309Z,30.07
2023-04-22T21:50:48.730Z,30.17
2023-04-22T21:53:20.275Z,30.23
2023-04-22T21:55:48.751Z,30.16
2023-04-22T21:58:17.360Z,30.14
2023-04-22T22:00:46.130Z,30.08
2023-04-22T22:03:14.646Z,30.00
2023-04-22T22:05:43.187Z,29.69
2023-04-22T22:08:11.545Z,29.66
2023-04-22T22:10:39.847Z,29.66
2023-04-22T22:13:08.838Z,29.66
2023-04-22T22:15:37.760Z,29.50
2023-04-22T22:18:07.589Z,29.56
2023-04-22T22:20:37.397Z,29.57
2023-04-22T22:23:05.711Z,29.49
2023-04-22T22:25:33.958Z,29.38
2023-04-22T22:28:02.284Z,29.28
2023-04-22T22:30:30.883Z,29.18
2023-04-22T22:32:59.221Z,29.04
2023-04-22T22:35:27.683Z,28.83
2023-04-22T22:37:55.984Z,28.66
2023-04-22T22:40:24.325Z,28.43
2023-04-22T22:42:52.622Z,28.41
2023-04-22T22:45:20.937Z,28.36
2023-04-22T22:47:49.404Z,28.08
2023-04-22T22:50:17.748Z,27.93
2023-04-22T22:52:46.107Z,27.77
2023-04-22T22:55:14.746Z,27.50
2023-04-22T22:57:43.118Z,27.14
2023-04-22T23:00:12.814Z,26.84
2023-04-22T23:02:41.359Z,26.65
2023-04-22T23:05:10.875Z,26.56
2023-04-22T23:07:39.479Z,26.38
2023-04-22T23:10:08.488Z,26.27
2023-04-22T23:12:36.740Z,26.04
2023-04-22T23:15:05.510Z,26.00
2023-04-22T23:17:33.801Z,25.87
2023-04-22T23:20:02.556Z,25.71
2023-04-22T23:22:32.956Z,25.54
2023-04-22T23:25:01.566Z,25.37
2023-04-22T23:27:30.651Z,25.18
2023-04-22T23:29:59.305Z,25.05
2023-04-22T23:32:28.349Z,24.92
2023-04-22T23:34:59.604Z,24.80
2023-04-22T23:37:29.811Z,24.68
2023-04-22T23:39:58.314Z,24.54
2023-04-22T23:42:26.784Z,24.43
2023-04-22T23:44:55.014Z,24.30
2023-04-22T23:47:23.272Z,24.17
2023-04-22T23:49:52.171Z,24.16
2023-04-22T23:52:21.203Z,24.14
2023-04-22T23:54:50.994Z,24.07
2023-04-22T23:57:19.647Z,23.91
2023-04-22T23:59:48.651Z,23.74
